Time;durP1;ratioP1;P1;durP2;ratioP2;P2;SDS_P1;SDS_P2;PMS_P1;PMS_P2;Temp;Humidity;BMP_temperature;BMP_pressure;BME280_temperature;BME280_humidity;BME280_pressure;Samples;Min_cycle;Max_cycle;Signal;HPM_P1;HPM_P2
2023/07/20 00:01:04;;;;;;;0.50;0.47;;;;;;;26.15;52.06;99194.31;4408262;32;33725;-85
2023/07/20 00:03:54;;;;;;;0.50;0.47;;;;;;;26.17;52.16;99184.16;4411126;32;34274;-85
2023/07/20 00:06:24;;;;;;;2.20;0.95;;;;;;;26.14;51.96;99189.94;4413713;32;34179;-85
2023/07/20 00:08:52;;;;;;;0.30;0.30;;;;;;;26.01;52.65;99195.09;4411459;32;34461;-85
2023/07/20 00:11:21;;;;;;;0.98;0.88;;;;;;;26.01;52.33;99190.53;4416670;32;34965;-85
2023/07/20 00:13:48;;;;;;;0.40;0.32;;;;;;;25.91;52.73;99189.09;4416443;32;33687;-85
2023/07/20 00:16:16;;;;;;;0.30;0.30;;;;;;;26.00;52.37;99190.72;4413038;32;32652;-85
2023/07/20 00:18:44;;;;;;;0.40;0.32;;;;;;;25.86;52.75;99183.41;4422867;32;33991;-85
2023/07/20 00:21:11;;;;;;;0.47;0.47;;;;;;;25.84;52.90;99170.06;4413760;32;34619;-85
2023/07/20 00:23:39;;;;;;;0.60;0.60;;;;;;;25.82;52.90;99179.38;4427859;32;33660;-85
2023/07/20 00:26:06;;;;;;;0.47;0.47;;;;;;;25.67;53.30;99172.00;4397619;32;33102;-85
2023/07/20 00:28:34;;;;;;;0.32;0.32;;;;;;;25.68;53.48;99184.47;4416034;32;33642;-85
2023/07/20 00:31:02;;;;;;;3.12;1.10;;;;;;;25.69;53.33;99180.78;4409203;32;32179;-85
2023/07/20 00:33:30;;;;;;;0.17;0.17;;;;;;;25.66;53.49;99189.25;4413410;32;33149;-85
2023/07/20 00:35:59;;;;;;;0.30;0.30;;;;;;;25.73;53.25;99198.34;4414213;32;34985;-85
2023/07/20 00:38:26;;;;;;;1.75;0.73;;;;;;;25.70;53.29;99197.84;4408062;32;34759;-85
2023/07/20 00:40:54;;;;;;;2.95;0.93;;;;;;;25.74;53.06;99197.31;4429179;32;34432;-85
2023/07/20 00:43:21;;;;;;;2.80;1.55;;;;;;;25.73;53.00;99197.47;4428283;32;33458;-85
2023/07/20 00:45:49;;;;;;;1.65;0.98;;;;;;;25.68;53.19;99191.75;4412408;32;33857;-85
2023/07/20 00:48:18;;;;;;;0.22;0.22;;;;;;;25.71;53.01;99184.13;4413541;32;33990;-85
2023/07/20 00:50:46;;;;;;;1.02;0.62;;;;;;;25.61;53.37;99180.81;4410281;32;33791;-85
2023/07/20 00:53:14;;;;;;;0.55;0.45;;;;;;;25.61;53.36;99178.13;4404866;32;33792;-85
2023/07/20 00:55:41;;;;;;;0.00;0.00;;;;;;;25.53;53.52;99176.28;4399364;32;33656;-85
2023/07/20 00:58:09;;;;;;;0.30;0.28;;;;;;;25.62;53.25;99174.38;4403603;32;32805;-86
2023/07/20 01:00:37;;;;;;;0.40;0.40;;;;;;;25.53;53.74;99162.78;4425194;32;34176;-85
2023/07/20 01:03:04;;;;;;;0.40;0.40;;;;;;;25.58;53.70;99159.53;4409849;32;33717;-85
2023/07/20 01:05:45;;;;;;;0.20;0.20;;;;;;;25.57;53.73;99160.56;4414935;32;32521;-85
2023/07/20 01:08:43;;;;;;;0.30;0.30;;;;;;;25.59;53.83;99158.56;4397903;32;33949;-85
2023/07/20 01:11:17;;;;;;;0.70;0.47;;;;;;;25.73;53.57;99155.06;4405989;32;33977;-85
2023/07/20 01:13:45;;;;;;;0.55;0.55;;;;;;;25.68;53.57;99152.03;4425749;32;33536;-85
2023/07/20 01:16:13;;;;;;;0.77;0.62;;;;;;;25.66;53.64;99147.84;4409194;32;34572;-85
2023/07/20 01:18:41;;;;;;;0.20;0.20;;;;;;;25.51;54.11;99142.38;4400525;32;33185;-85
2023/07/20 01:21:11;;;;;;;1.40;1.00;;;;;;;25.60;54.03;99144.00;4405752;32;34873;-85
2023/07/20 01:24:19;;;;;;;0.60;0.60;;;;;;;25.85;53.71;99141.16;4398869;32;33313;-85
2023/07/20 01:27:11;;;;;;;1.65;0.70;;;;;;;25.86;53.71;99138.25;4427036;32;33983;-85
2023/07/20 01:30:15;;;;;;;0.90;0.82;;;;;;;25.78;53.92;99135.62;4425551;32;33870;-85
2023/07/20 01:32:44;;;;;;;0.30;0.30;;;;;;;25.63;54.16;99135.50;4409216;32;32307;-85
2023/07/20 01:35:16;;;;;;;1.48;1.17;;;;;;;25.62;54.32;99144.66;4428206;32;34080;-85
2023/07/20 01:37:46;;;;;;;0.65;0.45;;;;;;;25.67;54.20;99155.78;4418125;32;32902;-85
2023/07/20 01:40:15;;;;;;;2.05;0.60;;;;;;;25.64;54.16;99150.75;4422386;32;34001;-85
2023/07/20 01:42:46;;;;;;;0.40;0.40;;;;;;;25.63;54.23;99153.59;4408361;32;32742;-85
2023/07/20 01:45:14;;;;;;;1.42;1.30;;;;;;;25.42;54.69;99151.56;4425846;32;33632;-85
2023/07/20 01:47:41;;;;;;;0.70;0.70;;;;;;;25.18;55.46;99158.78;4416289;32;33919;-85
2023/07/20 01:50:09;;;;;;;0.68;0.30;;;;;;;25.21;55.17;99166.53;4415270;32;33654;-85
2023/07/20 01:52:37;;;;;;;0.43;0.43;;;;;;;25.58;54.06;99167.66;4414650;32;33653;-85
2023/07/20 01:55:05;;;;;;;0.35;0.32;;;;;;;25.58;54.02;99167.66;4409554;32;34024;-85
2023/07/20 01:57:32;;;;;;;0.25;0.25;;;;;;;25.59;53.96;99169.38;4417045;32;32570;-85
2023/07/20 02:00:00;;;;;;;0.80;0.73;;;;;;;25.66;53.56;99170.31;4427122;32;34460;-85
2023/07/20 02:02:41;;;;;;;0.60;0.60;;;;;;;25.65;53.65;99165.94;4415045;32;32867;-85
2023/07/20 02:05:09;;;;;;;2.42;0.93;;;;;;;25.66;53.58;99175.72;4427576;32;33634;-85
2023/07/20 02:07:37;;;;;;;0.82;0.30;;;;;;;25.63;53.66;99181.47;4411992;32;32252;-85
2023/07/20 02:10:05;;;;;;;0.57;0.45;;;;;;;25.70;53.45;99185.16;4429713;32;34047;-85
2023/07/20 02:12:33;;;;;;;0.45;0.43;;;;;;;25.78;53.32;99182.44;4416021;32;32689;-85
2023/07/20 02:15:01;;;;;;;0.08;0.08;;;;;;;25.57;53.92;99184.91;4414465;32;33095;-85
2023/07/20 02:17:29;;;;;;;0.37;0.32;;;;;;;25.60;53.93;99181.84;4415179;32;32206;-85
2023/07/20 02:19:57;;;;;;;0.40;0.37;;;;;;;25.67;53.80;99171.16;4430204;32;34035;-85
2023/07/20 02:22:25;;;;;;;2.47;0.62;;;;;;;25.62;53.89;99178.97;4428730;32;33734;-84
2023/07/20 02:24:53;;;;;;;1.00;0.85;;;;;;;25.58;54.13;99183.03;4409692;32;34268;-85
2023/07/20 02:27:21;;;;;;;1.65;1.20;;;;;;;25.62;54.06;99187.06;4415057;32;33803;-85
2023/07/20 02:29:50;;;;;;;0.65;0.65;;;;;;;25.52;54.37;99190.00;4429536;32;33505;-85
2023/07/20 02:32:17;;;;;;;0.57;0.57;;;;;;;25.41;54.44;99185.84;4415838;32;34206;-85
2023/07/20 02:34:45;;;;;;;1.77;0.80;;;;;;;25.09;55.61;99194.09;4429908;32;32395;-85
2023/07/20 02:37:13;;;;;;;0.73;0.50;;;;;;;25.16;55.27;99204.03;4403650;32;33128;-85
2023/07/20 02:39:41;;;;;;;0.75;0.37;;;;;;;25.01;56.01;99200.31;4415405;32;32527;-85
2023/07/20 02:42:08;;;;;;;0.08;0.08;;;;;;;25.04;55.83;99198.13;4415480;32;33735;-85
2023/07/20 02:44:36;;;;;;;1.23;0.30;;;;;;;25.32;54.76;99189.59;4415658;32;33653;-85
2023/07/20 02:47:04;;;;;;;0.75;0.50;;;;;;;25.36;54.65;99198.22;4414074;32;32756;-85
2023/07/20 02:49:32;;;;;;;0.55;0.55;;;;;;;25.49;54.10;99199.31;4417428;32;33830;-85
2023/07/20 02:51:59;;;;;;;1.58;0.73;;;;;;;25.42;54.41;99200.19;4407119;32;34811;-85
2023/07/20 02:54:29;;;;;;;0.68;0.68;;;;;;;25.40;54.00;99202.22;4431572;32;34303;-85
2023/07/20 02:56:57;;;;;;;0.82;0.82;;;;;;;25.54;53.54;99201.47;4415219;32;32744;-85
2023/07/20 02:59:25;;;;;;;1.27;0.73;;;;;;;25.68;53.35;99203.41;4414296;32;33467;-85
2023/07/20 03:01:54;;;;;;;1.15;0.47;;;;;;;25.47;53.75;99206.75;4432506;32;34162;-85
2023/07/20 03:04:21;;;;;;;1.15;0.95;;;;;;;25.51;53.70;99201.84;4429597;32;34963;-85
2023/07/20 03:06:49;;;;;;;0.30;0.30;;;;;;;25.59;53.26;99207.22;4413572;32;32649;-85
2023/07/20 03:09:17;;;;;;;1.50;0.62;;;;;;;25.41;53.37;99209.34;4429476;32;33794;-85
2023/07/20 03:11:44;;;;;;;0.68;0.68;;;;;;;25.35;53.50;99210.00;4416454;32;32591;-85
2023/07/20 03:14:12;;;;;;;1.50;0.35;;;;;;;25.44;53.19;99214.38;4430335;32;32876;-85
2023/07/20 03:16:40;;;;;;;5.75;1.15;;;;;;;25.46;53.19;99218.59;4413148;32;33540;-85
2023/07/20 03:19:08;;;;;;;0.70;0.43;;;;;;;25.44;53.47;99225.19;4429934;32;33654;-85
2023/07/20 03:21:40;;;;;;;1.00;0.70;;;;;;;25.46;53.45;99228.56;4429225;32;34027;-85
2023/07/20 03:24:08;;;;;;;0.70;0.70;;;;;;;25.38;53.48;99231.28;4417299;32;33641;-85
2023/07/20 03:26:36;;;;;;;0.77;0.28;;;;;;;25.24;53.87;99225.59;4414884;32;33622;-85
2023/07/20 03:29:04;;;;;;;1.92;0.82;;;;;;;25.27;53.59;99227.97;4404967;32;34145;-85
2023/07/20 03:31:32;;;;;;;1.62;0.75;;;;;;;25.22;53.57;99216.84;4404142;32;32363;-85
2023/07/20 03:34:00;;;;;;;0.30;0.15;;;;;;;25.17;53.85;99234.59;4403708;32;33402;-85
2023/07/20 03:36:28;;;;;;;1.85;0.90;;;;;;;25.23;53.57;99242.84;4403500;32;33187;-85
2023/07/20 03:38:55;;;;;;;0.50;0.50;;;;;;;25.32;53.24;99237.41;4428846;32;34406;-85
2023/07/20 03:41:23;;;;;;;0.52;0.40;;;;;;;25.25;53.29;99238.09;4414948;32;33500;-85
2023/07/20 03:43:50;;;;;;;0.35;0.30;;;;;;;25.19;53.16;99241.50;4404855;32;32075;-85
2023/07/20 03:46:19;;;;;;;0.88;0.88;;;;;;;25.25;52.88;99248.91;4430406;32;33585;-85
2023/07/20 03:48:47;;;;;;;0.60;0.60;;;;;;;25.08;53.22;99252.69;4417014;32;34129;-85
2023/07/20 03:51:15;;;;;;;0.65;0.65;;;;;;;25.08;53.41;99252.69;4428019;32;34151;-85
2023/07/20 03:53:43;;;;;;;1.15;0.85;;;;;;;25.15;53.25;99253.66;4430912;32;33169;-85
2023/07/20 03:56:11;;;;;;;1.67;0.55;;;;;;;25.06;53.08;99254.66;4412675;32;34644;-85
2023/07/20 03:58:39;;;;;;;0.62;0.57;;;;;;;25.16;52.62;99251.81;4404966;32;32984;-84
2023/07/20 04:01:07;;;;;;;1.37;1.00;;;;;;;25.15;53.21;99252.81;4431852;32;34245;-85
2023/07/20 04:03:36;;;;;;;1.15;1.08;;;;;;;25.21;52.79;99249.41;4425758;32;32840;-85
2023/07/20 04:06:04;;;;;;;3.30;0.98;;;;;;;25.24;52.75;99251.78;4414928;32;33826;-85
2023/07/20 04:08:31;;;;;;;0.25;0.25;;;;;;;25.37;52.50;99245.84;4404274;32;33437;-85
2023/07/20 04:11:01;;;;;;;0.43;0.43;;;;;;;25.50;51.71;99249.66;4417732;32;32382;-85
2023/07/20 04:13:33;;;;;;;0.05;0.05;;;;;;;25.32;52.68;99248.22;4415804;32;34323;-85
2023/07/20 04:16:02;;;;;;;1.27;0.50;;;;;;;25.42;52.40;99243.44;4419751;32;32221;-86
2023/07/20 04:18:29;;;;;;;0.30;0.30;;;;;;;25.37;50.42;99243.97;4420635;32;33766;-85
2023/07/20 04:20:57;;;;;;;0.60;0.60;;;;;;;25.54;50.07;99226.66;4401688;32;34325;-85
2023/07/20 04:23:25;;;;;;;1.85;0.60;;;;;;;25.41;50.19;99225.53;4432838;32;33656;-85
2023/07/20 04:25:52;;;;;;;0.77;0.77;;;;;;;25.36;49.47;99217.97;4420333;32;33593;-85
2023/07/20 04:28:20;;;;;;;0.00;0.00;;;;;;;25.46;48.63;99217.75;4418098;32;32968;-85
2023/07/20 04:30:51;;;;;;;0.20;0.20;;;;;;;25.36;49.44;99214.44;4417977;32;36594;-85
2023/07/20 04:33:19;;;;;;;2.17;0.82;;;;;;;25.40;49.72;99224.72;4416120;32;32663;-85
2023/07/20 04:35:53;;;;;;;0.52;0.52;;;;;;;25.49;48.94;99229.06;4403487;32;32910;-85
2023/07/20 04:38:23;;;;;;;0.30;0.30;;;;;;;25.61;48.99;99226.78;4412043;32;34475;-85
2023/07/20 04:40:52;;;;;;;0.17;0.17;;;;;;;25.75;48.84;99223.34;4429337;32;33486;-85
2023/07/20 04:43:20;;;;;;;0.57;0.45;;;;;;;26.00;47.00;99231.31;4414914;32;33543;-85
2023/07/20 04:45:48;;;;;;;1.87;0.70;;;;;;;26.02;47.25;99226.56;4412026;32;33253;-85
2023/07/20 04:48:16;;;;;;;2.00;0.98;;;;;;;25.70;48.67;99222.19;4411635;32;32721;-85
2023/07/20 04:50:45;;;;;;;0.85;0.75;;;;;;;25.93;47.71;99228.50;4419068;32;33741;-85
2023/07/20 04:53:14;;;;;;;0.43;0.43;;;;;;;26.03;47.07;99225.53;4419503;32;33578;-85
2023/07/20 04:55:50;;;;;;;1.00;0.98;;;;;;;25.97;47.15;99232.53;4414766;32;33245;-85
2023/07/20 04:58:19;;;;;;;0.20;0.20;;;;;;;26.20;46.22;99231.66;4418878;32;33965;-85
2023/07/20 05:00:48;;;;;;;1.00;0.52;;;;;;;26.44;45.08;99231.47;4402235;32;33318;-85
2023/07/20 05:03:16;;;;;;;3.95;1.50;;;;;;;26.37;45.35;99235.09;4403895;32;32639;-85
2023/07/20 05:05:46;;;;;;;1.55;0.52;;;;;;;26.32;45.50;99229.38;4412103;32;35044;-85
2023/07/20 05:08:16;;;;;;;0.87;0.73;;;;;;;26.22;45.54;99237.75;4399925;32;33752;-85
2023/07/20 05:10:44;;;;;;;0.57;0.57;;;;;;;26.13;46.13;99236.97;4429122;32;34300;-85
2023/07/20 05:13:12;;;;;;;0.55;0.55;;;;;;;26.39;45.73;99230.31;4413883;32;33605;-85
2023/07/20 05:15:40;;;;;;;0.13;0.13;;;;;;;26.22;46.13;99238.59;4417985;32;33478;-85
2023/07/20 05:18:08;;;;;;;0.52;0.37;;;;;;;26.43;45.49;99231.66;4403298;32;33359;-85
2023/07/20 05:20:37;;;;;;;1.60;0.75;;;;;;;26.28;46.13;99239.72;4426324;32;34744;-85
2023/07/20 05:23:05;;;;;;;0.43;0.43;;;;;;;26.57;45.48;99233.56;4427468;32;33636;-86
2023/07/20 05:25:33;;;;;;;0.25;0.25;;;;;;;26.54;45.91;99242.09;4430834;32;33813;-85
2023/07/20 05:28:56;;;;;;;2.33;1.40;;;;;;;27.11;45.11;99230.69;4508513;31;170138;-84
2023/07/20 05:31:26;;;;;;;0.10;0.10;;;;;;;27.11;45.11;99230.69;4493457;31;33581;-84
2023/07/20 05:33:53;;;;;;;0.17;0.17;;;;;;;26.15;46.59;99245.72;4490428;31;33703;-84
2023/07/20 05:36:21;;;;;;;0.82;0.57;;;;;;;26.48;46.35;99250.91;4489474;31;33567;-84
2023/07/20 05:38:51;;;;;;;1.60;0.98;;;;;;;26.65;46.81;99249.75;4504479;31;32973;-85
2023/07/20 05:41:19;;;;;;;0.47;0.47;;;;;;;26.67;46.28;99247.69;4501370;31;33308;-84
2023/07/20 05:43:46;;;;;;;1.05;0.82;;;;;;;26.37;47.02;99252.16;4503863;31;34309;-84
2023/07/20 05:46:14;;;;;;;0.28;0.28;;;;;;;26.67;46.43;99244.97;4503445;31;36203;-84
2023/07/20 05:48:43;;;;;;;0.57;0.57;;;;;;;27.12;45.64;99247.78;4504342;31;33643;-84
2023/07/20 05:51:10;;;;;;;0.32;0.32;;;;;;;26.98;46.07;99252.97;4489155;31;32114;-84
2023/07/20 05:53:38;;;;;;;1.75;1.27;;;;;;;27.14;45.24;99249.25;4505298;31;34561;-85
2023/07/20 05:56:06;;;;;;;0.65;0.62;;;;;;;26.84;46.26;99250.25;4486582;31;33315;-84
2023/07/20 05:58:33;;;;;;;0.75;0.37;;;;;;;26.62;46.63;99252.81;4507427;31;35882;-84
2023/07/20 06:01:02;;;;;;;0.65;0.62;;;;;;;27.17;45.20;99250.78;4501888;31;33714;-84
2023/07/20 06:03:30;;;;;;;0.98;0.17;;;;;;;27.40;44.72;99248.81;4500421;31;33497;-84
2023/07/20 06:06:00;;;;;;;0.55;0.55;;;;;;;27.48;44.86;99248.66;4505869;31;34150;-84
2023/07/20 06:08:28;;;;;;;2.20;0.62;;;;;;;27.28;44.95;99253.84;4502595;31;34179;-84
2023/07/20 06:10:56;;;;;;;0.30;0.30;;;;;;;27.66;44.15;99264.56;4506701;31;33471;-84
2023/07/20 06:13:25;;;;;;;2.80;0.85;;;;;;;27.79;43.88;99262.03;4501721;31;34524;-84
2023/07/20 06:15:53;;;;;;;1.50;1.37;;;;;;;27.99;43.04;99273.09;4501525;31;34343;-84
2023/07/20 06:18:24;;;;;;;1.30;1.02;;;;;;;28.00;42.12;99276.66;4501720;31;33375;-84
2023/07/20 06:20:52;;;;;;;3.03;1.52;;;;;;;28.26;41.88;99271.50;4499774;31;33031;-85
2023/07/20 06:23:20;;;;;;;0.70;0.70;;;;;;;28.16;41.68;99271.00;4501114;31;33973;-84
2023/07/20 06:25:48;;;;;;;0.60;0.40;;;;;;;28.35;41.54;99276.84;4502837;31;34559;-85
2023/07/20 06:28:16;;;;;;;0.62;0.57;;;;;;;28.14;41.12;99274.94;4502592;31;32203;-85
2023/07/20 06:30:43;;;;;;;0.43;0.30;;;;;;;28.14;41.54;99267.63;4501876;31;33154;-85
2023/07/20 06:33:11;;;;;;;1.37;0.40;;;;;;;28.11;41.34;99281.59;4504016;31;33888;-85
2023/07/20 06:35:42;;;;;;;8.90;1.02;;;;;;;28.53;41.45;99285.34;4488739;31;33470;-84
2023/07/20 06:38:10;;;;;;;1.48;0.60;;;;;;;28.42;41.64;99277.75;4501593;31;34016;-85
2023/07/20 06:40:41;;;;;;;0.60;0.60;;;;;;;28.69;41.03;99289.69;4491661;31;33679;-84
2023/07/20 06:43:08;;;;;;;1.75;1.05;;;;;;;28.95;40.00;99283.66;4477182;31;33948;-85
2023/07/20 06:45:38;;;;;;;5.37;1.48;;;;;;;28.66;39.92;99290.91;4488998;31;33377;-84
2023/07/20 06:48:06;;;;;;;1.37;1.02;;;;;;;29.19;39.69;99291.34;4490199;31;33895;-85
2023/07/20 06:50:34;;;;;;;3.72;1.23;;;;;;;29.30;38.94;99295.41;4492579;31;33273;-85
2023/07/20 06:53:03;;;;;;;0.10;0.10;;;;;;;29.55;37.77;99302.03;4477435;31;32891;-84
2023/07/20 06:55:31;;;;;;;0.60;0.50;;;;;;;29.19;38.02;99307.66;4494777;31;34422;-85
2023/07/20 06:58:08;;;;;;;0.88;0.73;;;;;;;29.41;38.05;99302.16;4491836;31;32677;-85
2023/07/20 07:00:36;;;;;;;0.70;0.70;;;;;;;29.14;39.31;99310.13;4477020;31;32970;-85
2023/07/20 07:03:03;;;;;;;1.12;0.50;;;;;;;29.33;38.77;99309.41;4478826;31;32301;-85
2023/07/20 07:05:31;;;;;;;0.47;0.47;;;;;;;28.96;39.10;99301.63;4494393;31;34371;-85
2023/07/20 07:08:04;;;;;;;0.60;0.50;;;;;;;29.35;38.83;99295.62;4491512;31;33743;-85
2023/07/20 07:10:33;;;;;;;2.12;1.00;;;;;;;29.32;35.74;99302.28;4492288;31;33294;-85
2023/07/20 07:13:01;;;;;;;0.30;0.30;;;;;;;29.43;36.13;99309.03;4481381;31;33475;-84
2023/07/20 07:15:28;;;;;;;0.98;0.98;;;;;;;29.05;35.91;99305.88;4491969;31;33810;-85
2023/07/20 07:17:56;;;;;;;3.80;0.95;;;;;;;29.70;35.59;99299.19;4466863;31;33255;-85
2023/07/20 07:20:24;;;;;;;0.80;0.40;;;;;;;29.19;36.35;99302.22;4479429;31;32875;-85
2023/07/20 07:22:52;;;;;;;3.60;1.00;;;;;;;29.38;35.44;99310.69;4491585;31;33879;-86
2023/07/20 07:25:20;;;;;;;2.28;0.98;;;;;;;29.33;35.98;99303.97;4495422;31;33684;-85
2023/07/20 07:27:53;;;;;;;0.88;0.75;;;;;;;29.33;35.56;99303.97;4493549;31;33360;-85
2023/07/20 07:30:21;;;;;;;0.88;0.85;;;;;;;29.63;35.12;99311.09;4493623;31;32188;-85
2023/07/20 07:32:48;;;;;;;0.65;0.65;;;;;;;29.85;34.60;99301.75;4491530;31;33935;-85
2023/07/20 07:35:16;;;;;;;0.70;0.40;;;;;;;29.32;35.00;99307.72;4490640;31;33527;-85
2023/07/20 07:37:46;;;;;;;0.85;0.85;;;;;;;29.76;34.96;99311.12;4478453;31;33669;-85
2023/07/20 07:40:33;;;;;;;0.55;0.55;;;;;;;29.70;34.45;99315.50;4480592;31;32839;-85
2023/07/20 07:43:00;;;;;;;0.10;0.10;;;;;;;29.26;35.37;99316.69;4491565;31;35158;-85
2023/07/20 07:45:28;;;;;;;3.50;0.75;;;;;;;29.66;34.33;99313.38;4491594;31;34745;-85
2023/07/20 07:47:55;;;;;;;0.77;0.77;;;;;;;29.82;34.52;99310.34;4479021;31;34289;-85
2023/07/20 07:50:23;;;;;;;0.10;0.10;;;;;;;29.96;34.41;99308.47;4493630;31;33001;-84
2023/07/20 07:52:51;;;;;;;1.95;0.30;;;;;;;29.95;34.04;99312.25;4480123;31;32439;-85
2023/07/20 07:55:18;;;;;;;0.20;0.20;;;;;;;30.02;33.94;99313.13;4488073;31;33880;-85
2023/07/20 07:57:47;;;;;;;0.60;0.43;;;;;;;30.01;34.27;99316.91;4466353;31;32857;-85
2023/07/20 08:00:18;;;;;;;0.20;0.20;;;;;;;29.96;34.56;99308.47;4493172;31;33621;-85
2023/07/20 08:02:47;;;;;;;0.32;0.32;;;;;;;29.70;35.56;99311.94;4490705;31;33519;-85
2023/07/20 08:05:16;;;;;;;0.57;0.57;;;;;;;29.98;34.25;99306.41;4465626;31;34632;-85
2023/07/20 08:07:45;;;;;;;2.20;0.73;;;;;;;29.99;34.95;99314.34;4477375;31;32743;-85
2023/07/20 08:10:12;;;;;;;0.80;0.47;;;;;;;30.49;34.05;99314.09;4493284;31;34077;-85
2023/07/20 08:12:40;;;;;;;0.75;0.75;;;;;;;30.12;33.88;99326.34;4492692;31;32231;-85
2023/07/20 08:15:10;;;;;;;0.47;0.40;;;;;;;30.49;33.32;99335.91;4479536;31;32742;-85
2023/07/20 08:17:38;;;;;;;0.65;0.65;;;;;;;30.42;33.32;99324.97;4477994;31;34126;-85
2023/07/20 08:20:06;;;;;;;4.78;1.95;;;;;;;30.62;33.44;99322.28;4494962;31;33136;-85
2023/07/20 08:22:34;;;;;;;0.70;0.43;;;;;;;30.65;32.82;99326.47;4475741;31;33473;-85
2023/07/20 08:25:02;;;;;;;0.28;0.28;;;;;;;30.48;32.61;99332.34;4476971;31;33527;-85
2023/07/20 08:27:30;;;;;;;0.60;0.60;;;;;;;30.14;33.59;99322.37;4465817;31;33796;-85
2023/07/20 08:29:57;;;;;;;0.32;0.30;;;;;;;30.07;33.86;99332.41;4489684;31;34209;-85
2023/07/20 08:32:27;;;;;;;0.68;0.60;;;;;;;29.92;34.15;99329.00;4479978;31;33563;-85
2023/07/20 08:34:54;;;;;;;0.52;0.50;;;;;;;29.81;34.21;99330.41;4477433;31;32588;-85
2023/07/20 08:37:22;;;;;;;0.43;0.43;;;;;;;29.59;35.09;99337.84;4489541;31;33706;-85
2023/07/20 08:39:50;;;;;;;1.95;0.82;;;;;;;28.79;36.34;99345.37;4480074;31;32680;-85
2023/07/20 08:42:17;;;;;;;0.85;0.73;;;;;;;29.48;34.80;99333.78;4463564;31;32022;-85
2023/07/20 08:44:46;;;;;;;0.30;0.30;;;;;;;29.08;35.18;99354.41;4493144;31;33671;-85
2023/07/20 08:47:15;;;;;;;0.62;0.52;;;;;;;28.84;34.67;99361.94;4465753;31;33752;-85
2023/07/20 08:49:44;;;;;;;1.40;0.73;;;;;;;28.87;33.78;99359.88;4476203;31;33410;-85
2023/07/20 08:52:11;;;;;;;0.47;0.47;;;;;;;28.72;33.97;99352.63;4478967;31;33941;-85
2023/07/20 08:54:39;;;;;;;2.25;1.00;;;;;;;29.06;34.17;99356.50;4477833;31;32358;-85
2023/07/20 08:57:07;;;;;;;0.77;0.50;;;;;;;29.29;33.46;99357.09;4474400;31;34003;-85
2023/07/20 08:59:36;;;;;;;0.43;0.40;;;;;;;29.43;33.52;99358.00;4488944;31;33099;-85
2023/07/20 09:02:04;;;;;;;0.50;0.50;;;;;;;29.02;35.13;99360.66;4476243;31;32963;-85
2023/07/20 09:04:32;;;;;;;0.62;0.62;;;;;;;29.55;34.90;99361.06;4480318;31;32723;-85
2023/07/20 09:07:00;;;;;;;0.37;0.37;;;;;;;30.08;33.41;99362.13;4479837;31;33547;-85
2023/07/20 09:09:27;;;;;;;0.75;0.75;;;;;;;29.91;33.83;99376.28;4488816;31;33125;-85
2023/07/20 09:11:55;;;;;;;0.37;0.37;;;;;;;30.48;32.23;99375.06;4494343;31;33452;-85
2023/07/20 09:14:23;;;;;;;0.88;0.82;;;;;;;30.37;32.05;99375.66;4475838;31;31616;-85
2023/07/20 09:16:54;;;;;;;0.43;0.43;;;;;;;30.59;32.08;99380.75;4486558;31;34053;-86
2023/07/20 09:19:22;;;;;;;0.20;0.20;;;;;;;30.89;30.46;99374.13;4476719;31;34070;-85
2023/07/20 09:21:51;;;;;;;0.93;0.90;;;;;;;30.92;30.56;99376.44;4477835;31;33149;-86
2023/07/20 09:24:19;;;;;;;0.70;0.57;;;;;;;31.37;30.53;99367.41;4464293;31;33184;-85
2023/07/20 09:26:48;;;;;;;1.87;0.90;;;;;;;31.35;29.96;99358.59;4490686;31;33652;-85
2023/07/20 09:29:20;;;;;;;0.20;0.20;;;;;;;31.21;30.89;99365.09;4480045;31;33381;-85
2023/07/20 09:32:03;;;;;;;0.65;0.47;;;;;;;31.43;31.28;99354.81;4490843;31;34020;-85
2023/07/20 09:34:32;;;;;;;0.37;0.35;;;;;;;31.96;28.80;99365.62;4493476;31;32841;-86
2023/07/20 09:37:03;;;;;;;0.30;0.30;;;;;;;31.59;28.57;99357.09;4488487;31;33523;-85
2023/07/20 09:39:31;;;;;;;0.30;0.30;;;;;;;31.67;28.95;99361.50;4480350;31;32069;-86
2023/07/20 09:42:04;;;;;;;0.25;0.25;;;;;;;31.94;29.11;99361.41;4479919;31;32542;-85
2023/07/20 09:44:34;;;;;;;0.28;0.28;;;;;;;32.10;28.96;99355.47;4486855;31;34047;-86
2023/07/20 09:47:05;;;;;;;3.20;0.80;;;;;;;31.67;29.67;99361.50;4489754;31;33819;-86
2023/07/20 09:49:39;;;;;;;0.13;0.13;;;;;;;32.18;29.48;99363.41;4491129;31;32960;-85
2023/07/20 09:52:10;;;;;;;0.30;0.30;;;;;;;32.52;29.36;99364.06;4472765;31;34879;-86
2023/07/20 09:54:38;;;;;;;0.30;0.30;;;;;;;32.10;29.64;99360.94;4491137;31;33203;-86
2023/07/20 09:57:10;;;;;;;3.50;1.08;;;;;;;32.09;29.56;99357.38;4475503;31;32889;-85
2023/07/20 09:59:38;;;;;;;;;;;;;;;32.40;29.58;99363.94;4491691;31;33323;-86
2023/07/20 10:02:22;;;;;;;0.40;0.40;;;;;;;32.06;28.76;99365.16;4491391;31;33761;-85
2023/07/20 10:04:53;;;;;;;1.67;1.10;;;;;;;32.08;29.44;99368.50;4490467;31;33991;-85
2023/07/20 10:07:23;;;;;;;0.35;0.35;;;;;;;31.96;28.89;99370.25;4478421;31;33465;-86
2023/07/20 10:09:53;;;;;;;0.40;0.40;;;;;;;31.43;29.66;99381.25;4489984;31;32116;-85
2023/07/20 10:12:22;;;;;;;0.50;0.40;;;;;;;31.87;29.85;99375.09;4477897;31;34082;-85
2023/07/20 10:14:58;;;;;;;0.62;0.20;;;;;;;32.22;29.89;99381.03;4483729;31;33977;-86
2023/07/20 10:17:29;;;;;;;1.20;1.10;;;;;;;32.11;29.46;99381.72;4491503;31;33743;-86
2023/07/20 10:20:01;;;;;;;0.30;0.30;;;;;;;32.19;29.22;99386.94;4492292;31;33829;-86
2023/07/20 10:22:31;;;;;;;0.22;0.22;;;;;;;32.47;29.20;99377.56;4478175;31;34286;-85
2023/07/20 10:25:04;;;;;;;0.25;0.25;;;;;;;32.16;29.50;99379.19;4483221;31;33805;-86
2023/07/20 10:27:32;;;;;;;0.62;0.43;;;;;;;31.60;31.12;99377.03;4490949;31;34849;-85
2023/07/20 10:30:01;;;;;;;1.25;0.95;;;;;;;32.12;29.87;99376.03;4490480;31;33076;-86
2023/07/20 10:32:30;;;;;;;1.55;1.05;;;;;;;32.52;30.00;99375.87;4487236;31;34501;-85
2023/07/20 10:34:58;;;;;;;1.05;0.73;;;;;;;32.44;31.02;99381.59;4491927;31;34188;-86
2023/07/20 10:38:04;;;;;;;1.23;0.80;;;;;;;32.73;29.33;99382.03;4490876;31;33724;-85
2023/07/20 10:40:38;;;;;;;0.85;0.85;;;;;;;32.19;29.07;99378.75;4431482;32;34055;-86
2023/07/20 10:43:08;;;;;;;0.93;0.85;;;;;;;32.32;29.25;99375.94;4430021;32;32974;-86
2023/07/20 10:45:41;;;;;;;12.25;1.08;;;;;;;32.62;29.54;99375.37;4464204;31;33235;-85
2023/07/20 10:48:19;;;;;;;0.80;0.30;;;;;;;32.46;30.51;99360.34;4493134;31;33348;-86
2023/07/20 10:51:11;;;;;;;0.22;0.22;;;;;;;32.70;29.57;99375.09;4476596;31;32088;-86
2023/07/20 10:53:39;;;;;;;0.47;0.28;;;;;;;32.82;29.30;99367.87;4449238;31;33096;-86
2023/07/20 10:56:08;;;;;;;3.40;0.65;;;;;;;32.87;28.77;99361.75;4495357;31;34437;-86
2023/07/20 10:58:36;;;;;;;0.90;0.75;;;;;;;32.64;29.36;99362.31;4496488;31;34627;-86
2023/07/20 11:01:05;;;;;;;0.20;0.20;;;;;;;32.50;28.18;99368.94;4491191;31;33017;-86
2023/07/20 11:03:40;;;;;;;1.75;1.30;;;;;;;32.39;28.45;99370.47;4490951;31;34494;-86
2023/07/20 11:06:26;;;;;;;0.35;0.35;;;;;;;32.34;28.68;99364.81;4490168;31;34425;-86
2023/07/20 11:09:14;;;;;;;5.05;1.85;;;;;;;32.03;28.63;99362.84;4494118;31;33788;-85
2023/07/20 11:11:44;;;;;;;2.08;0.25;;;;;;;32.28;28.39;99369.22;4479902;31;32758;-86
2023/07/20 11:14:22;;;;;;;0.28;0.28;;;;;;;32.15;28.22;99361.13;4471602;31;32842;-86
2023/07/20 11:16:51;;;;;;;0.45;0.35;;;;;;;32.87;27.90;99357.09;4492360;31;33215;-86
2023/07/20 11:19:21;;;;;;;0.20;0.20;;;;;;;33.21;28.21;99357.69;4476457;31;34148;-86
2023/07/20 11:21:55;;;;;;;0.30;0.30;;;;;;;32.66;28.25;99354.72;4491944;31;34095;-86
2023/07/20 11:24:31;;;;;;;0.37;0.37;;;;;;;33.28;27.97;99352.13;4489679;31;34465;-86
2023/07/20 11:27:01;;;;;;;0.40;0.40;;;;;;;33.25;27.73;99347.97;4491761;31;33923;-86
2023/07/20 11:29:28;;;;;;;0.25;0.25;;;;;;;33.10;27.32;99350.22;4479234;31;31947;-86
2023/07/20 11:32:02;;;;;;;0.20;0.20;;;;;;;33.28;28.14;99360.34;4492707;31;32846;-86
2023/07/20 11:34:33;;;;;;;0.37;0.37;;;;;;;33.28;27.15;99352.13;4490414;31;33841;-86
2023/07/20 11:37:03;;;;;;;0.30;0.30;;;;;;;33.78;26.46;99347.44;4490255;31;33685;-86
2023/07/20 11:39:34;;;;;;;0.65;0.52;;;;;;;33.70;26.22;99361.41;4490771;31;34473;-86
2023/07/20 11:42:02;;;;;;;0.98;0.75;;;;;;;33.55;26.53;99352.75;4465145;31;33097;-87
2023/07/20 11:44:29;;;;;;;0.60;0.15;;;;;;;33.63;25.06;99360.66;4475932;31;34266;-86
2023/07/20 11:47:09;;;;;;;0.28;0.20;;;;;;;33.15;25.61;99361.34;4479014;32;34446;-86